sensor_id;sensor_type;location;lat;lon;timestamp;pressure;altitude;pressure_sealevel;temperature;humidity
50125;BME280;36023;48.670;6.184;2022-08-21T00:02:23;99153.47;;;25.85;38.21
50125;BME280;36023;48.670;6.184;2022-08-21T00:04:50;99150.81;;;25.85;38.31
50125;BME280;36023;48.670;6.184;2022-08-21T00:07:16;99156.00;;;25.86;38.39
50125;BME280;36023;48.670;6.184;2022-08-21T00:09:42;99153.34;;;25.86;38.23
50125;BME280;36023;48.670;6.184;2022-08-21T00:12:07;99151.66;;;25.85;38.32
50125;BME280;36023;48.670;6.184;2022-08-21T00:14:33;99154.31;;;25.85;38.27
50125;BME280;36023;48.670;6.184;2022-08-21T00:16:59;99151.53;;;25.87;38.08
50125;BME280;36023;48.670;6.184;2022-08-21T00:19:25;99148.03;;;25.86;38.12
50125;BME280;36023;48.670;6.184;2022-08-21T00:21:51;99146.09;;;25.88;38.22
50125;BME280;36023;48.670;6.184;2022-08-21T00:24:17;99147.91;;;25.88;38.26
50125;BME280;36023;48.670;6.184;2022-08-21T00:26:43;99149.72;;;25.87;38.20
50125;BME280;36023;48.670;6.184;2022-08-21T00:29:10;99147.91;;;25.88;38.15
50125;BME280;36023;48.670;6.184;2022-08-21T00:31:36;99149.72;;;25.87;38.14
50125;BME280;36023;48.670;6.184;2022-08-21T00:34:03;99140.91;;;25.87;38.26
50125;BME280;36023;48.670;6.184;2022-08-21T00:36:28;99140.78;;;25.88;38.19
50125;BME280;36023;48.670;6.184;2022-08-21T00:38:54;99142.59;;;25.88;38.12
50125;BME280;36023;48.670;6.184;2022-08-21T00:41:19;99134.63;;;25.88;38.07
50125;BME280;36023;48.670;6.184;2022-08-21T00:43:45;99142.47;;;25.89;38.21
50125;BME280;36023;48.670;6.184;2022-08-21T00:46:10;99140.78;;;25.88;38.09
50125;BME280;36023;48.670;6.184;2022-08-21T00:48:36;99149.56;;;25.89;38.11
50125;BME280;36023;48.670;6.184;2022-08-21T00:53:30;99146.78;;;25.90;38.10
50125;BME280;36023;48.670;6.184;2022-08-21T00:55:57;99140.50;;;25.91;38.16
50125;BME280;36023;48.670;6.184;2022-08-21T00:58:25;99144.88;;;25.92;38.10
50125;BME280;36023;48.670;6.184;2022-08-21T01:00:51;99142.31;;;25.91;38.14
50125;BME280;36023;48.670;6.184;2022-08-21T01:03:20;99145.81;;;25.91;38.20
50125;BME280;36023;48.670;6.184;2022-08-21T01:05:46;99145.81;;;25.91;38.27
50125;BME280;36023;48.670;6.184;2022-08-21T01:08:11;99149.44;;;25.90;38.29
50125;BME280;36023;48.670;6.184;2022-08-21T01:10:37;99149.44;;;25.90;38.25
50125;BME280;36023;48.670;6.184;2022-08-21T01:13:03;99152.09;;;25.90;38.40
50125;BME280;36023;48.670;6.184;2022-08-21T01:15:35;99150.41;;;25.89;38.31
50125;BME280;36023;48.670;6.184;2022-08-21T01:18:04;99155.72;;;25.89;38.16
50125;BME280;36023;48.670;6.184;2022-08-21T01:20:30;99157.53;;;25.89;38.19
50125;BME280;36023;48.670;6.184;2022-08-21T01:22:56;99154.88;;;25.89;38.29
50125;BME280;36023;48.670;6.184;2022-08-21T01:25:21;99160.06;;;25.90;38.22
50125;BME280;36023;48.670;6.184;2022-08-21T01:27:51;99149.56;;;25.89;38.04
50125;BME280;36023;48.670;6.184;2022-08-21T01:30:18;99149.56;;;25.89;38.11
50125;BME280;36023;48.670;6.184;2022-08-21T01:32:45;99147.75;;;25.89;37.94
50125;BME280;36023;48.670;6.184;2022-08-21T01:35:13;99148.72;;;25.88;37.99
50125;BME280;36023;48.670;6.184;2022-08-21T01:37:40;99150.53;;;25.88;38.07
50125;BME280;36023;48.670;6.184;2022-08-21T01:40:05;99151.38;;;25.88;37.88
50125;BME280;36023;48.670;6.184;2022-08-21T01:42:31;99152.38;;;25.87;38.03
50125;BME280;36023;48.670;6.184;2022-08-21T01:44:56;99154.03;;;25.88;37.94
50125;BME280;36023;48.670;6.184;2022-08-21T01:47:22;99153.19;;;25.88;37.80
50125;BME280;36023;48.670;6.184;2022-08-21T01:49:48;99153.19;;;25.88;37.85
50125;BME280;36023;48.670;6.184;2022-08-21T01:52:14;99147.06;;;25.87;37.92
50125;BME280;36023;48.670;6.184;2022-08-21T01:54:40;99139.09;;;25.87;37.88
50125;BME280;36023;48.670;6.184;2022-08-21T01:57:06;99139.09;;;25.87;37.85
50125;BME280;36023;48.670;6.184;2022-08-21T01:59:31;99129.47;;;25.86;37.81
50125;BME280;36023;48.670;6.184;2022-08-21T02:01:57;99136.56;;;25.86;37.82
50125;BME280;36023;48.670;6.184;2022-08-21T02:04:23;99128.63;;;25.86;37.70
50125;BME280;36023;48.670;6.184;2022-08-21T02:06:49;99125.97;;;25.86;37.77
50125;BME280;36023;48.670;6.184;2022-08-21T02:09:15;99121.63;;;25.85;37.95
50125;BME280;36023;48.670;6.184;2022-08-21T02:11:41;99125.13;;;25.85;37.89
50125;BME280;36023;48.670;6.184;2022-08-21T02:14:07;99126.09;;;25.84;37.80
50125;BME280;36023;48.670;6.184;2022-08-21T02:16:33;99120.78;;;25.84;37.63
50125;BME280;36023;48.670;6.184;2022-08-21T02:18:59;99123.53;;;25.82;37.78
50125;BME280;36023;48.670;6.184;2022-08-21T02:21:25;99128.75;;;25.84;37.84
50125;BME280;36023;48.670;6.184;2022-08-21T02:23:50;99115.59;;;25.82;37.73
50125;BME280;36023;48.670;6.184;2022-08-21T02:26:16;99120.78;;;25.84;37.88
50125;BME280;36023;48.670;6.184;2022-08-21T02:28:43;99113.91;;;25.81;37.91
50125;BME280;36023;48.670;6.184;2022-08-21T02:31:09;99118.38;;;25.81;37.98
50125;BME280;36023;48.670;6.184;2022-08-21T02:33:35;99117.41;;;25.82;37.96
50125;BME280;36023;48.670;6.184;2022-08-21T02:36:02;99117.41;;;25.82;37.97
50125;BME280;36023;48.670;6.184;2022-08-21T02:38:29;99110.41;;;25.81;37.69
50125;BME280;36023;48.670;6.184;2022-08-21T02:40:55;99109.56;;;25.80;37.88
50125;BME280;36023;48.670;6.184;2022-08-21T02:43:22;99119.22;;;25.81;37.85
50125;BME280;36023;48.670;6.184;2022-08-21T02:45:48;99110.41;;;25.81;38.00
50125;BME280;36023;48.670;6.184;2022-08-21T02:48:15;99108.72;;;25.80;37.98
50125;BME280;36023;48.670;6.184;2022-08-21T02:50:44;99104.41;;;25.79;37.79
50125;BME280;36023;48.670;6.184;2022-08-21T02:53:12;99103.56;;;25.78;37.87
50125;BME280;36023;48.670;6.184;2022-08-21T02:55:40;99104.41;;;25.79;37.92
50125;BME280;36023;48.670;6.184;2022-08-21T02:58:06;99104.53;;;25.77;38.09
50125;BME280;36023;48.670;6.184;2022-08-21T03:00:33;99102.84;;;25.76;37.88
50125;BME280;36023;48.670;6.184;2022-08-21T03:02:59;99099.34;;;25.76;38.00
50125;BME280;36023;48.670;6.184;2022-08-21T03:05:25;99102.94;;;25.75;38.05
50125;BME280;36023;48.670;6.184;2022-08-21T03:07:51;99102.94;;;25.75;38.13
50125;BME280;36023;48.670;6.184;2022-08-21T03:10:18;99095.97;;;25.74;37.95
50125;BME280;36023;48.670;6.184;2022-08-21T03:12:45;99092.47;;;25.73;38.05
50125;BME280;36023;48.670;6.184;2022-08-21T03:15:11;99093.31;;;25.74;38.05
50125;BME280;36023;48.670;6.184;2022-08-21T03:17:37;99093.44;;;25.72;37.84
50125;BME280;36023;48.670;6.184;2022-08-21T03:20:04;99101.25;;;25.74;37.99
50125;BME280;36023;48.670;6.184;2022-08-21T03:22:29;99089.94;;;25.72;38.08
50125;BME280;36023;48.670;6.184;2022-08-21T03:24:55;99087.28;;;25.72;38.07
50125;BME280;36023;48.670;6.184;2022-08-21T03:27:23;99091.03;;;25.69;38.02
50125;BME280;36023;48.670;6.184;2022-08-21T03:29:49;99084.88;;;25.69;37.90
50125;BME280;36023;48.670;6.184;2022-08-21T03:32:15;99083.06;;;25.69;38.02
50125;BME280;36023;48.670;6.184;2022-08-21T03:34:41;99089.34;;;25.68;37.89
50125;BME280;36023;48.670;6.184;2022-08-21T03:37:08;99090.19;;;25.69;38.03
50125;BME280;36023;48.670;6.184;2022-08-21T03:39:34;99092.84;;;25.69;38.08
50125;BME280;36023;48.670;6.184;2022-08-21T03:42:02;99095.47;;;25.69;37.95
50125;BME280;36023;48.670;6.184;2022-08-21T03:44:27;99091.03;;;25.69;38.28
50125;BME280;36023;48.670;6.184;2022-08-21T03:46:54;99086.56;;;25.70;38.13
50125;BME280;36023;48.670;6.184;2022-08-21T03:49:20;99081.25;;;25.70;38.13
50125;BME280;36023;48.670;6.184;2022-08-21T03:51:46;99088.47;;;25.68;38.24
50125;BME280;36023;48.670;6.184;2022-08-21T03:54:12;99090.19;;;25.69;38.00
50125;BME280;36023;48.670;6.184;2022-08-21T03:56:37;99091.13;;;25.68;38.20
50125;BME280;36023;48.670;6.184;2022-08-21T03:59:03;99087.75;;;25.66;38.23
50125;BME280;36023;48.670;6.184;2022-08-21T04:01:29;99088.72;;;25.65;38.20
50125;BME280;36023;48.670;6.184;2022-08-21T04:03:55;99087.88;;;25.64;38.17
50125;BME280;36023;48.670;6.184;2022-08-21T04:06:20;99088.84;;;25.63;38.20
50125;BME280;36023;48.670;6.184;2022-08-21T04:08:46;99101.28;;;25.63;38.21
50125;BME280;36023;48.670;6.184;2022-08-21T04:11:11;99099.59;;;25.62;38.08
50125;BME280;36023;48.670;6.184;2022-08-21T04:13:37;99097.06;;;25.60;38.11
50125;BME280;36023;48.670;6.184;2022-08-21T04:16:04;99100.56;;;25.61;37.97
50125;BME280;36023;48.670;6.184;2022-08-21T04:18:29;99102.34;;;25.60;38.05
50125;BME280;36023;48.670;6.184;2022-08-21T04:20:55;99101.50;;;25.60;37.98
50125;BME280;36023;48.670;6.184;2022-08-21T04:23:22;99094.53;;;25.59;37.82
50125;BME280;36023;48.670;6.184;2022-08-21T04:25:48;99105.13;;;25.59;38.14
50125;BME280;36023;48.670;6.184;2022-08-21T04:28:15;99114.91;;;25.58;37.81
50125;BME280;36023;48.670;6.184;2022-08-21T04:30:40;99120.22;;;25.58;37.89
50125;BME280;36023;48.670;6.184;2022-08-21T04:33:06;99116.72;;;25.58;37.77
50125;BME280;36023;48.670;6.184;2022-08-21T04:35:31;99117.69;;;25.56;37.88
50125;BME280;36023;48.670;6.184;2022-08-21T04:37:58;99120.34;;;25.56;37.72
50125;BME280;36023;48.670;6.184;2022-08-21T04:40:25;99120.34;;;25.56;37.80
50125;BME280;36023;48.670;6.184;2022-08-21T04:42:52;99117.81;;;25.55;37.77
50125;BME280;36023;48.670;6.184;2022-08-21T04:47:46;99125.91;;;25.53;37.75
50125;BME280;36023;48.670;6.184;2022-08-21T04:50:12;99115.41;;;25.52;37.64
50125;BME280;36023;48.670;6.184;2022-08-21T04:52:51;99122.41;;;25.53;37.70
50125;BME280;36023;48.670;6.184;2022-08-21T04:55:19;99128.56;;;25.53;37.47
50125;BME280;36023;48.670;6.184;2022-08-21T04:57:45;99121.53;;;25.52;37.60
50125;BME280;36023;48.670;6.184;2022-08-21T05:00:11;99123.34;;;25.52;37.41
50125;BME280;36023;48.670;6.184;2022-08-21T05:02:38;99123.34;;;25.52;37.53
50125;BME280;36023;48.670;6.184;2022-08-21T05:05:04;99119.84;;;25.51;37.68
50125;BME280;36023;48.670;6.184;2022-08-21T05:07:30;99127.81;;;25.51;37.36
50125;BME280;36023;48.670;6.184;2022-08-21T05:09:57;99128.78;;;25.50;37.48
50125;BME280;36023;48.670;6.184;2022-08-21T05:12:23;99126.84;;;25.52;37.48
50125;BME280;36023;48.670;6.184;2022-08-21T05:14:50;99129.50;;;25.52;37.69
50125;BME280;36023;48.670;6.184;2022-08-21T05:17:15;99134.81;;;25.52;37.66
50125;BME280;36023;48.670;6.184;2022-08-21T05:19:41;99127.72;;;25.53;37.59
50125;BME280;36023;48.670;6.184;2022-08-21T05:22:06;99127.72;;;25.53;37.65
50125;BME280;36023;48.670;6.184;2022-08-21T05:24:32;99125.06;;;25.53;37.70
50125;BME280;36023;48.670;6.184;2022-08-21T05:26:59;99129.50;;;25.52;37.78
50125;BME280;36023;48.670;6.184;2022-08-21T05:29:24;99128.66;;;25.52;37.84
50125;BME280;36023;48.670;6.184;2022-08-21T05:31:50;99125.16;;;25.51;37.58
50125;BME280;36023;48.670;6.184;2022-08-21T05:34:19;99127.81;;;25.51;37.65
50125;BME280;36023;48.670;6.184;2022-08-21T05:36:49;99128.78;;;25.50;37.83
50125;BME280;36023;48.670;6.184;2022-08-21T05:39:15;99130.59;;;25.50;37.73
50125;BME280;36023;48.670;6.184;2022-08-21T05:41:41;99139.41;;;25.50;37.66
50125;BME280;36023;48.670;6.184;2022-08-21T05:44:06;99137.72;;;25.49;37.65
50125;BME280;36023;48.670;6.184;2022-08-21T05:46:32;99131.56;;;25.49;37.81
50125;BME280;36023;48.670;6.184;2022-08-21T05:48:57;99136.03;;;25.48;37.84
50125;BME280;36023;48.670;6.184;2022-08-21T05:51:23;99131.56;;;25.49;37.78
50125;BME280;36023;48.670;6.184;2022-08-21T05:53:48;99133.38;;;25.48;37.65
50125;BME280;36023;48.670;6.184;2022-08-21T05:56:14;99132.53;;;25.48;37.69
50125;BME280;36023;48.670;6.184;2022-08-21T05:58:39;99129.88;;;25.48;37.85
50125;BME280;36023;48.670;6.184;2022-08-21T06:01:05;99134.34;;;25.47;37.78
50125;BME280;36023;48.670;6.184;2022-08-21T06:03:33;99128.22;;;25.47;37.59
50125;BME280;36023;48.670;6.184;2022-08-21T06:05:59;99128.22;;;25.47;37.74
50125;BME280;36023;48.670;6.184;2022-08-21T06:08:26;99132.66;;;25.46;37.78
50125;BME280;36023;48.670;6.184;2022-08-21T06:10:52;99125.69;;;25.45;37.83
50125;BME280;36023;48.670;6.184;2022-08-21T06:13:19;99131.00;;;25.45;37.71
50125;BME280;36023;48.670;6.184;2022-08-21T06:15:45;99130.16;;;25.45;37.88
50125;BME280;36023;48.670;6.184;2022-08-21T06:18:10;99131.00;;;25.45;37.73
50125;BME280;36023;48.670;6.184;2022-08-21T06:20:36;99133.63;;;25.45;37.75
50125;BME280;36023;48.670;6.184;2022-08-21T06:23:02;99125.69;;;25.45;37.86
50125;BME280;36023;48.670;6.184;2022-08-21T06:25:30;99132.66;;;25.46;37.91
50125;BME280;36023;48.670;6.184;2022-08-21T06:28:06;99127.38;;;25.46;37.78
50125;BME280;36023;48.670;6.184;2022-08-21T06:30:32;99123.75;;;25.47;37.91
50125;BME280;36023;48.670;6.184;2022-08-21T06:32:57;99132.53;;;25.48;37.91
50125;BME280;36023;48.670;6.184;2022-08-21T06:35:23;99124.59;;;25.48;38.05
50125;BME280;36023;48.670;6.184;2022-08-21T06:37:49;99123.75;;;25.47;37.97
50125;BME280;36023;48.670;6.184;2022-08-21T06:40:15;99117.59;;;25.47;38.03
50125;BME280;36023;48.670;6.184;2022-08-21T06:42:40;99122.06;;;25.46;37.96
50125;BME280;36023;48.670;6.184;2022-08-21T06:45:06;99119.53;;;25.45;38.12
50125;BME280;36023;48.670;6.184;2022-08-21T06:47:32;99116.03;;;25.44;37.95
50125;BME280;36023;48.670;6.184;2022-08-21T06:49:57;99122.28;;;25.43;37.89
50125;BME280;36023;48.670;6.184;2022-08-21T06:52:22;99126.75;;;25.43;37.94
50125;BME280;36023;48.670;6.184;2022-08-21T06:54:49;99125.06;;;25.42;38.00
50125;BME280;36023;48.670;6.184;2022-08-21T06:57:16;99122.41;;;25.42;38.11
50125;BME280;36023;48.670;6.184;2022-08-21T06:59:42;99113.63;;;25.41;38.17
50125;BME280;36023;48.670;6.184;2022-08-21T07:02:07;99111.94;;;25.40;38.22
50125;BME280;36023;48.670;6.184;2022-08-21T07:04:33;99111.94;;;25.40;38.07
50125;BME280;36023;48.670;6.184;2022-08-21T07:06:58;99116.41;;;25.40;38.09
50125;BME280;36023;48.670;6.184;2022-08-21T07:09:24;99111.94;;;25.40;38.07
50125;BME280;36023;48.670;6.184;2022-08-21T07:11:50;99116.41;;;25.40;38.12
50125;BME280;36023;48.670;6.184;2022-08-21T07:14:17;99112.91;;;25.39;38.10
50125;BME280;36023;48.670;6.184;2022-08-21T07:16:42;99107.63;;;25.39;38.16
50125;BME280;36023;48.670;6.184;2022-08-21T07:19:08;99115.56;;;25.39;38.31
50125;BME280;36023;48.670;6.184;2022-08-21T07:21:33;99112.19;;;25.37;38.30
50125;BME280;36023;48.670;6.184;2022-08-21T07:23:59;99121.84;;;25.38;38.03
50125;BME280;36023;48.670;6.184;2022-08-21T07:26:24;99116.53;;;25.38;38.26
50125;BME280;36023;48.670;6.184;2022-08-21T07:28:51;99109.56;;;25.37;38.21
50125;BME280;36023;48.670;6.184;2022-08-21T07:31:19;99106.91;;;25.37;38.39
50125;BME280;36023;48.670;6.184;2022-08-21T07:33:45;99102.53;;;25.36;38.30
50125;BME280;36023;48.670;6.184;2022-08-21T07:36:11;99099.88;;;25.36;38.30
50125;BME280;36023;48.670;6.184;2022-08-21T07:38:36;99103.50;;;25.35;38.33
50125;BME280;36023;48.670;6.184;2022-08-21T07:41:02;99105.19;;;25.36;38.53
50125;BME280;36023;48.670;6.184;2022-08-21T07:43:32;99101.69;;;25.36;38.22
50125;BME280;36023;48.670;6.184;2022-08-21T07:45:57;99098.19;;;25.35;38.67
50125;BME280;36023;48.670;6.184;2022-08-21T07:48:23;99100.84;;;25.35;38.31
50125;BME280;36023;48.670;6.184;2022-08-21T07:50:48;99092.06;;;25.35;38.35
50125;BME280;36023;48.670;6.184;2022-08-21T07:53:15;99085.91;;;25.34;38.45
50125;BME280;36023;48.670;6.184;2022-08-21T07:55:40;99091.22;;;25.34;38.59
50125;BME280;36023;48.670;6.184;2022-08-21T07:58:06;99096.53;;;25.34;38.70
50125;BME280;36023;48.670;6.184;2022-08-21T08:00:32;99108.81;;;25.35;38.70
50125;BME280;36023;48.670;6.184;2022-08-21T08:02:57;99103.50;;;25.35;38.71
50125;BME280;36023;48.670;6.184;2022-08-21T08:05:24;99101.69;;;25.36;38.60
50125;BME280;36023;48.670;6.184;2022-08-21T08:07:50;99098.19;;;25.35;38.59
50125;BME280;36023;48.670;6.184;2022-08-21T08:10:16;99092.91;;;25.35;38.68
50125;BME280;36023;48.670;6.184;2022-08-21T08:12:42;99092.06;;;25.35;38.65
50125;BME280;36023;48.670;6.184;2022-08-21T08:15:10;99098.19;;;25.35;38.78
50125;BME280;36023;48.670;6.184;2022-08-21T08:17:36;99097.38;;;25.35;38.95
50125;BME280;36023;48.670;6.184;2022-08-21T08:20:03;99094.72;;;25.35;38.72
50125;BME280;36023;48.670;6.184;2022-08-21T08:22:28;99091.22;;;25.34;39.03
50125;BME280;36023;48.670;6.184;2022-08-21T08:24:55;99095.56;;;25.35;38.95
50125;BME280;36023;48.670;6.184;2022-08-21T08:27:21;99092.78;;;25.37;39.01
50125;BME280;36023;48.670;6.184;2022-08-21T08:29:47;99091.94;;;25.36;39.13
50125;BME280;36023;48.670;6.184;2022-08-21T08:32:13;99100.72;;;25.37;39.00
50125;BME280;36023;48.670;6.184;2022-08-21T08:34:38;99100.72;;;25.37;39.13
50125;BME280;36023;48.670;6.184;2022-08-21T08:37:04;99100.72;;;25.37;39.14
50125;BME280;36023;48.670;6.184;2022-08-21T08:39:31;99098.06;;;25.37;39.22
50125;BME280;36023;48.670;6.184;2022-08-21T08:42:01;99092.78;;;25.37;39.25
50125;BME280;36023;48.670;6.184;2022-08-21T08:44:31;99095.44;;;25.37;39.39
50125;BME280;36023;48.670;6.184;2022-08-21T08:46:57;99090.13;;;25.37;39.25
50125;BME280;36023;48.670;6.184;2022-08-21T08:49:24;99091.94;;;25.36;39.47
50125;BME280;36023;48.670;6.184;2022-08-21T08:54:23;99089.28;;;25.36;39.60
50125;BME280;36023;48.670;6.184;2022-08-21T08:56:52;99088.44;;;25.36;39.46
50125;BME280;36023;48.670;6.184;2022-08-21T08:59:20;99088.34;;;25.37;39.59
50125;BME280;36023;48.670;6.184;2022-08-21T09:01:48;99090.13;;;25.37;39.84
50125;BME280;36023;48.670;6.184;2022-08-21T09:04:14;99087.47;;;25.37;39.74
50125;BME280;36023;48.670;6.184;2022-08-21T09:06:51;99084.81;;;25.37;39.62
50125;BME280;36023;48.670;6.184;2022-08-21T09:12:02;99078.69;;;25.36;39.99
50125;BME280;36023;48.670;6.184;2022-08-21T09:15:31;99078.69;;;25.36;39.91
50125;BME280;36023;48.670;6.184;2022-08-21T09:22:57;99071.69;;;25.35;40.25
50125;BME280;36023;48.670;6.184;2022-08-21T09:25:26;99081.31;;;25.36;40.24
50125;BME280;36023;48.670;6.184;2022-08-21T09:27:52;99078.69;;;25.36;40.12
50125;BME280;36023;48.670;6.184;2022-08-21T09:30:18;99072.44;;;25.37;40.27
50125;BME280;36023;48.670;6.184;2022-08-21T09:32:44;99070.72;;;25.36;40.34
50125;BME280;36023;48.670;6.184;2022-08-21T09:35:11;99065.41;;;25.36;40.40
50125;BME280;36023;48.670;6.184;2022-08-21T09:43:02;99071.56;;;25.37;40.62
50125;BME280;36023;48.670;6.184;2022-08-21T09:45:28;99073.38;;;25.36;40.57
50125;BME280;36023;48.670;6.184;2022-08-21T09:47:54;99067.97;;;25.38;40.59
50125;BME280;36023;48.670;6.184;2022-08-21T09:50:21;99069.78;;;25.37;40.65
50125;BME280;36023;48.670;6.184;2022-08-21T09:52:49;99068.06;;;25.36;40.65
50125;BME280;36023;48.670;6.184;2022-08-21T09:55:17;99062.78;;;25.36;40.70
50125;BME280;36023;48.670;6.184;2022-08-21T09:58:03;99064.47;;;25.37;40.78
50125;BME280;36023;48.670;6.184;2022-08-21T10:00:31;99054.81;;;25.36;40.86
50125;BME280;36023;48.670;6.184;2022-08-21T10:03:14;99060.13;;;25.36;40.89
50125;BME280;36023;48.670;6.184;2022-08-21T10:08:18;99059.19;;;25.37;41.03
50125;BME280;36023;48.670;6.184;2022-08-21T10:10:44;99049.41;;;25.38;40.96
50125;BME280;36023;48.670;6.184;2022-08-21T10:18:42;99043.28;;;25.37;41.26
50125;BME280;36023;48.670;6.184;2022-08-21T10:21:12;99045.91;;;25.37;41.14
50125;BME280;36023;48.670;6.184;2022-08-21T10:26:24;99043.28;;;25.37;41.46
50125;BME280;36023;48.670;6.184;2022-08-21T10:31:23;99033.50;;;25.38;41.48
50125;BME280;36023;48.670;6.184;2022-08-21T10:36:25;99029.03;;;25.38;41.62
50125;BME280;36023;48.670;6.184;2022-08-21T10:41:40;99026.38;;;25.38;41.56
50125;BME280;36023;48.670;6.184;2022-08-21T10:46:47;99020.97;;;25.40;41.70
50125;BME280;36023;48.670;6.184;2022-08-21T10:52:02;99016.50;;;25.40;41.87
50125;BME280;36023;48.670;6.184;2022-08-21T10:54:42;99015.53;;;25.41;41.86
50125;BME280;36023;48.670;6.184;2022-08-21T10:57:15;99014.56;;;25.42;41.83
50125;BME280;36023;48.670;6.184;2022-08-21T10:59:47;99010.94;;;25.43;41.77
50125;BME280;36023;48.670;6.184;2022-08-21T11:07:38;99010.69;;;25.46;41.84
50125;BME280;36023;48.670;6.184;2022-08-21T11:10:25;99002.75;;;25.46;42.01
50125;BME280;36023;48.670;6.184;2022-08-21T11:13:25;98997.44;;;25.46;41.90
50125;BME280;36023;48.670;6.184;2022-08-21T11:20:42;98986.69;;;25.48;42.20
50125;BME280;36023;48.670;6.184;2022-08-21T11:23:20;98985.84;;;25.47;42.14
50125;BME280;36023;48.670;6.184;2022-08-21T11:25:49;98986.56;;;25.49;42.35
50125;BME280;36023;48.670;6.184;2022-08-21T11:28:22;98988.25;;;25.50;42.14
50125;BME280;36023;48.670;6.184;2022-08-21T11:35:51;98998.84;;;25.50;42.42
50125;BME280;36023;48.670;6.184;2022-08-21T11:51:14;98987.28;;;25.51;42.36
50125;BME280;36023;48.670;6.184;2022-08-21T11:53:45;98991.59;;;25.52;42.46
50125;BME280;36023;48.670;6.184;2022-08-21T11:56:21;98988.94;;;25.52;42.35
50125;BME280;36023;48.670;6.184;2022-08-21T11:58:49;98987.16;;;25.53;42.50
50125;BME280;36023;48.670;6.184;2022-08-21T12:01:17;98988.00;;;25.53;42.50
50125;BME280;36023;48.670;6.184;2022-08-21T12:09:05;98966.78;;;25.53;42.47
50125;BME280;36023;48.670;6.184;2022-08-21T12:11:31;98974.75;;;25.53;42.61
50125;BME280;36023;48.670;6.184;2022-08-21T12:19:14;98964.13;;;25.53;42.88
50125;BME280;36023;48.670;6.184;2022-08-21T12:22:13;98969.44;;;25.53;42.91
50125;BME280;36023;48.670;6.184;2022-08-21T12:24:41;98953.53;;;25.53;42.81
50125;BME280;36023;48.670;6.184;2022-08-21T12:29:56;98958.84;;;25.53;43.02
50125;BME280;36023;48.670;6.184;2022-08-21T12:32:24;98956.28;;;25.52;42.93
50125;BME280;36023;48.670;6.184;2022-08-21T12:35:36;98951.81;;;25.52;43.19
50125;BME280;36023;48.670;6.184;2022-08-21T12:40:03;98945.69;;;25.52;43.12
50125;BME280;36023;48.670;6.184;2022-08-21T12:42:37;98947.50;;;25.51;43.34
50125;BME280;36023;48.670;6.184;2022-08-21T12:45:11;98949.31;;;25.51;43.25
50125;BME280;36023;48.670;6.184;2022-08-21T12:47:48;98941.47;;;25.49;43.30
50125;BME280;36023;48.670;6.184;2022-08-21T12:50:17;98946.78;;;25.49;43.51
50125;BME280;36023;48.670;6.184;2022-08-21T12:52:47;98942.47;;;25.48;43.50
50125;BME280;36023;48.670;6.184;2022-08-21T12:55:14;98946.78;;;25.49;43.62
50125;BME280;36023;48.670;6.184;2022-08-21T12:57:43;98941.47;;;25.49;43.63
50125;BME280;36023;48.670;6.184;2022-08-21T13:00:10;98940.66;;;25.49;43.75
50125;BME280;36023;48.670;6.184;2022-08-21T13:02:38;98940.66;;;25.49;43.56
50125;BME280;36023;48.670;6.184;2022-08-21T13:05:08;98936.31;;;25.48;43.71
50125;BME280;36023;48.670;6.184;2022-08-21T13:07:37;98930.03;;;25.49;43.77
50125;BME280;36023;48.670;6.184;2022-08-21T13:10:13;98935.47;;;25.47;43.81
50125;BME280;36023;48.670;6.184;2022-08-21T13:12:40;98923.06;;;25.48;44.04
50125;BME280;36023;48.670;6.184;2022-08-21T13:15:07;98927.53;;;25.47;43.77
50125;BME280;36023;48.670;6.184;2022-08-21T13:17:34;98923.06;;;25.48;43.71
50125;BME280;36023;48.670;6.184;2022-08-21T13:20:05;98916.91;;;25.47;43.94
50125;BME280;36023;48.670;6.184;2022-08-21T13:22:31;98919.56;;;25.47;43.95
50125;BME280;36023;48.670;6.184;2022-08-21T13:24:57;98919.56;;;25.47;43.99
50125;BME280;36023;48.670;6.184;2022-08-21T13:27:28;98915.09;;;25.48;43.75
50125;BME280;36023;48.670;6.184;2022-08-21T13:30:05;98923.06;;;25.48;43.89
50125;BME280;36023;48.670;6.184;2022-08-21T13:32:31;98909.78;;;25.48;43.76
50125;BME280;36023;48.670;6.184;2022-08-21T13:34:58;98913.28;;;25.48;43.70
50125;BME280;36023;48.670;6.184;2022-08-21T13:37:25;98912.44;;;25.48;43.83
50125;BME280;36023;48.670;6.184;2022-08-21T13:39:52;98913.28;;;25.48;43.69
50125;BME280;36023;48.670;6.184;2022-08-21T13:42:17;98907.97;;;25.48;43.70
50125;BME280;36023;48.670;6.184;2022-08-21T13:44:46;98908.81;;;25.49;43.56
50125;BME280;36023;48.670;6.184;2022-08-21T13:47:12;98904.34;;;25.49;43.70
50125;BME280;36023;48.670;6.184;2022-08-21T13:49:48;98904.34;;;25.49;43.63
50125;BME280;36023;48.670;6.184;2022-08-21T13:52:24;98901.56;;;25.51;43.44
50125;BME280;36023;48.670;6.184;2022-08-21T13:55:00;98906.03;;;25.50;43.38
50125;BME280;36023;48.670;6.184;2022-08-21T13:57:31;98908.56;;;25.52;43.48
50125;BME280;36023;48.670;6.184;2022-08-21T14:02:43;98900.50;;;25.53;43.41
50125;BME280;36023;48.670;6.184;2022-08-21T14:05:16;98902.16;;;25.54;43.57
50125;BME280;36023;48.670;6.184;2022-08-21T14:07:42;98898.53;;;25.55;43.80
50125;BME280;36023;48.670;6.184;2022-08-21T14:10:16;98893.81;;;25.59;44.06
50125;BME280;36023;48.670;6.184;2022-08-21T14:12:50;98883.09;;;25.61;43.81
50125;BME280;36023;48.670;6.184;2022-08-21T14:15:19;98882.97;;;25.62;44.01
50125;BME280;36023;48.670;6.184;2022-08-21T14:17:47;98889.81;;;25.65;44.00
50125;BME280;36023;48.670;6.184;2022-08-21T14:20:26;98887.16;;;25.65;43.94
50125;BME280;36023;48.670;6.184;2022-08-21T14:22:51;98888.81;;;25.66;43.91
50125;BME280;36023;48.670;6.184;2022-08-21T14:27:45;98888.69;;;25.67;43.79
50125;BME280;36023;48.670;6.184;2022-08-21T14:30:19;98887.75;;;25.68;43.87
50125;BME280;36023;48.670;6.184;2022-08-21T14:32:45;98888.59;;;25.69;43.81
50125;BME280;36023;48.670;6.184;2022-08-21T14:35:10;98889.44;;;25.69;43.71
50125;BME280;36023;48.670;6.184;2022-08-21T14:37:36;98883.28;;;25.69;43.71